sensor_id;sensor_type;location;lat;lon;timestamp;temperature;humidity
23160;DHT22;11748;50.844;4.396;2023-06-22T00:00:44;23.20;99.90
23160;DHT22;11748;50.844;4.396;2023-06-22T00:03:10;23.20;99.90
23160;DHT22;11748;50.844;4.396;2023-06-22T00:05:36;23.20;99.90
23160;DHT22;11748;50.844;4.396;2023-06-22T00:08:04;23.20;99.90
23160;DHT22;11748;50.844;4.396;2023-06-22T00:10:30;23.20;99.90
23160;DHT22;11748;50.844;4.396;2023-06-22T00:12:56;23.10;99.90
23160;DHT22;11748;50.844;4.396;2023-06-22T00:15:22;23.10;99.90
23160;DHT22;11748;50.844;4.396;2023-06-22T00:17:49;23.10;99.90
23160;DHT22;11748;50.844;4.396;2023-06-22T00:20:15;23.00;99.90
23160;DHT22;11748;50.844;4.396;2023-06-22T00:22:42;23.00;99.90
23160;DHT22;11748;50.844;4.396;2023-06-22T00:25:09;23.00;99.90
23160;DHT22;11748;50.844;4.396;2023-06-22T00:27:36;23.00;99.90
23160;DHT22;11748;50.844;4.396;2023-06-22T00:30:02;23.00;99.90
23160;DHT22;11748;50.844;4.396;2023-06-22T00:32:28;23.00;99.90
23160;DHT22;11748;50.844;4.396;2023-06-22T00:34:53;22.90;99.90
23160;DHT22;11748;50.844;4.396;2023-06-22T00:37:19;22.70;99.90
23160;DHT22;11748;50.844;4.396;2023-06-22T00:39:44;22.60;99.90
23160;DHT22;11748;50.844;4.396;2023-06-22T00:42:10;22.70;99.90
23160;DHT22;11748;50.844;4.396;2023-06-22T00:44:36;22.90;99.90
23160;DHT22;11748;50.844;4.396;2023-06-22T00:47:03;23.00;99.90
23160;DHT22;11748;50.844;4.396;2023-06-22T00:49:29;23.00;99.90
23160;DHT22;11748;50.844;4.396;2023-06-22T00:51:56;23.00;99.90
23160;DHT22;11748;50.844;4.396;2023-06-22T00:54:22;22.90;99.90
23160;DHT22;11748;50.844;4.396;2023-06-22T00:56:53;23.00;99.90
23160;DHT22;11748;50.844;4.396;2023-06-22T00:59:20;23.00;99.90
23160;DHT22;11748;50.844;4.396;2023-06-22T01:01:46;23.00;99.90
23160;DHT22;11748;50.844;4.396;2023-06-22T01:04:12;23.00;99.90
23160;DHT22;11748;50.844;4.396;2023-06-22T01:06:47;23.00;99.90
23160;DHT22;11748;50.844;4.396;2023-06-22T01:09:21;23.00;99.90
23160;DHT22;11748;50.844;4.396;2023-06-22T01:12:04;23.00;99.90
23160;DHT22;11748;50.844;4.396;2023-06-22T01:14:35;23.00;99.90
23160;DHT22;11748;50.844;4.396;2023-06-22T01:17:05;23.00;99.90
23160;DHT22;11748;50.844;4.396;2023-06-22T01:22:01;23.00;99.90
23160;DHT22;11748;50.844;4.396;2023-06-22T01:24:48;23.00;99.90
23160;DHT22;11748;50.844;4.396;2023-06-22T01:29:58;23.00;99.90
23160;DHT22;11748;50.844;4.396;2023-06-22T01:32:32;23.00;99.90
23160;DHT22;11748;50.844;4.396;2023-06-22T01:35:00;22.90;99.90
23160;DHT22;11748;50.844;4.396;2023-06-22T01:37:28;22.90;99.90
23160;DHT22;11748;50.844;4.396;2023-06-22T01:39:55;22.90;99.90
23160;DHT22;11748;50.844;4.396;2023-06-22T01:42:26;22.80;99.90
23160;DHT22;11748;50.844;4.396;2023-06-22T01:44:53;22.80;99.90
23160;DHT22;11748;50.844;4.396;2023-06-22T01:47:20;22.80;99.90
23160;DHT22;11748;50.844;4.396;2023-06-22T01:49:47;22.70;99.90
23160;DHT22;11748;50.844;4.396;2023-06-22T01:52:14;22.70;99.90
23160;DHT22;11748;50.844;4.396;2023-06-22T01:54:41;22.60;99.90
23160;DHT22;11748;50.844;4.396;2023-06-22T01:57:07;22.60;99.90
23160;DHT22;11748;50.844;4.396;2023-06-22T02:00:13;22.50;99.90
23160;DHT22;11748;50.844;4.396;2023-06-22T02:02:48;22.40;99.90
23160;DHT22;11748;50.844;4.396;2023-06-22T02:05:17;22.40;99.90
23160;DHT22;11748;50.844;4.396;2023-06-22T02:08:00;22.20;99.90
23160;DHT22;11748;50.844;4.396;2023-06-22T02:10:28;22.30;99.90
23160;DHT22;11748;50.844;4.396;2023-06-22T02:12:54;22.30;99.90
23160;DHT22;11748;50.844;4.396;2023-06-22T02:15:20;22.20;99.90
23160;DHT22;11748;50.844;4.396;2023-06-22T02:17:47;22.30;99.90
23160;DHT22;11748;50.844;4.396;2023-06-22T02:20:15;22.20;99.90
23160;DHT22;11748;50.844;4.396;2023-06-22T02:22:41;22.10;99.90
23160;DHT22;11748;50.844;4.396;2023-06-22T02:25:07;22.10;99.90
23160;DHT22;11748;50.844;4.396;2023-06-22T02:27:32;22.10;99.90
23160;DHT22;11748;50.844;4.396;2023-06-22T02:29:58;22.10;99.90
23160;DHT22;11748;50.844;4.396;2023-06-22T02:32:25;22.10;99.90
23160;DHT22;11748;50.844;4.396;2023-06-22T02:34:50;22.10;99.90
23160;DHT22;11748;50.844;4.396;2023-06-22T02:37:17;22.00;99.90
23160;DHT22;11748;50.844;4.396;2023-06-22T02:39:43;22.00;99.90
23160;DHT22;11748;50.844;4.396;2023-06-22T02:42:09;22.00;99.90
23160;DHT22;11748;50.844;4.396;2023-06-22T02:44:36;21.90;99.90
23160;DHT22;11748;50.844;4.396;2023-06-22T02:47:02;21.90;99.90
23160;DHT22;11748;50.844;4.396;2023-06-22T02:49:28;21.80;99.90
23160;DHT22;11748;50.844;4.396;2023-06-22T02:51:53;21.80;99.90
23160;DHT22;11748;50.844;4.396;2023-06-22T02:54:20;21.80;99.90
23160;DHT22;11748;50.844;4.396;2023-06-22T02:56:46;21.70;99.90
23160;DHT22;11748;50.844;4.396;2023-06-22T02:59:12;21.70;99.90
23160;DHT22;11748;50.844;4.396;2023-06-22T03:01:37;21.70;99.90
23160;DHT22;11748;50.844;4.396;2023-06-22T03:04:06;21.80;99.90
23160;DHT22;11748;50.844;4.396;2023-06-22T03:06:32;21.80;99.90
23160;DHT22;11748;50.844;4.396;2023-06-22T03:09:05;21.80;99.90
23160;DHT22;11748;50.844;4.396;2023-06-22T03:11:31;21.70;99.90
23160;DHT22;11748;50.844;4.396;2023-06-22T03:13:57;21.70;99.90
23160;DHT22;11748;50.844;4.396;2023-06-22T03:16:23;21.60;99.90
23160;DHT22;11748;50.844;4.396;2023-06-22T03:18:49;21.60;99.90
23160;DHT22;11748;50.844;4.396;2023-06-22T03:21:15;21.60;99.90
23160;DHT22;11748;50.844;4.396;2023-06-22T03:23:42;21.50;99.90
23160;DHT22;11748;50.844;4.396;2023-06-22T03:26:09;21.50;99.90
23160;DHT22;11748;50.844;4.396;2023-06-22T03:28:35;21.50;99.90
23160;DHT22;11748;50.844;4.396;2023-06-22T03:31:00;21.40;99.90
23160;DHT22;11748;50.844;4.396;2023-06-22T03:33:26;21.40;99.90
23160;DHT22;11748;50.844;4.396;2023-06-22T03:35:52;21.40;99.90
23160;DHT22;11748;50.844;4.396;2023-06-22T03:38:20;21.50;99.90
23160;DHT22;11748;50.844;4.396;2023-06-22T03:40:46;21.30;99.90
23160;DHT22;11748;50.844;4.396;2023-06-22T03:43:12;21.20;99.90
23160;DHT22;11748;50.844;4.396;2023-06-22T03:45:38;21.10;99.90
23160;DHT22;11748;50.844;4.396;2023-06-22T03:48:04;21.00;99.90
23160;DHT22;11748;50.844;4.396;2023-06-22T03:50:29;21.10;99.90
23160;DHT22;11748;50.844;4.396;2023-06-22T03:52:55;21.20;99.90
23160;DHT22;11748;50.844;4.396;2023-06-22T03:55:21;21.40;99.90
23160;DHT22;11748;50.844;4.396;2023-06-22T03:57:46;21.50;99.90
23160;DHT22;11748;50.844;4.396;2023-06-22T04:00:13;21.60;99.90
23160;DHT22;11748;50.844;4.396;2023-06-22T04:02:38;21.70;99.90
23160;DHT22;11748;50.844;4.396;2023-06-22T04:05:04;21.80;99.90
23160;DHT22;11748;50.844;4.396;2023-06-22T04:07:30;21.90;99.90
23160;DHT22;11748;50.844;4.396;2023-06-22T04:09:57;21.90;99.90
23160;DHT22;11748;50.844;4.396;2023-06-22T04:12:23;21.90;99.90
23160;DHT22;11748;50.844;4.396;2023-06-22T04:14:48;21.90;99.90
23160;DHT22;11748;50.844;4.396;2023-06-22T04:17:15;21.80;99.90
23160;DHT22;11748;50.844;4.396;2023-06-22T04:19:43;21.90;99.90
23160;DHT22;11748;50.844;4.396;2023-06-22T04:22:08;21.90;99.90
23160;DHT22;11748;50.844;4.396;2023-06-22T04:24:35;22.00;99.90
23160;DHT22;11748;50.844;4.396;2023-06-22T04:27:01;22.00;99.90
23160;DHT22;11748;50.844;4.396;2023-06-22T04:29:29;22.00;99.90
23160;DHT22;11748;50.844;4.396;2023-06-22T04:31:56;22.10;99.90
23160;DHT22;11748;50.844;4.396;2023-06-22T04:34:24;22.10;99.90
23160;DHT22;11748;50.844;4.396;2023-06-22T04:36:51;22.10;99.90
23160;DHT22;11748;50.844;4.396;2023-06-22T04:39:17;22.10;99.90
23160;DHT22;11748;50.844;4.396;2023-06-22T04:41:44;22.20;99.90
23160;DHT22;11748;50.844;4.396;2023-06-22T04:46:37;22.30;99.90
23160;DHT22;11748;50.844;4.396;2023-06-22T04:49:09;22.30;99.90
23160;DHT22;11748;50.844;4.396;2023-06-22T04:51:42;22.30;99.90
23160;DHT22;11748;50.844;4.396;2023-06-22T04:54:09;22.30;99.90
23160;DHT22;11748;50.844;4.396;2023-06-22T04:56:35;22.40;99.90
23160;DHT22;11748;50.844;4.396;2023-06-22T04:59:01;22.40;99.90
23160;DHT22;11748;50.844;4.396;2023-06-22T05:01:27;22.30;99.90
23160;DHT22;11748;50.844;4.396;2023-06-22T05:03:52;22.30;99.90
23160;DHT22;11748;50.844;4.396;2023-06-22T05:06:24;22.30;99.90
23160;DHT22;11748;50.844;4.396;2023-06-22T05:08:54;22.40;99.90
23160;DHT22;11748;50.844;4.396;2023-06-22T05:11:26;22.50;99.90
23160;DHT22;11748;50.844;4.396;2023-06-22T05:13:53;22.50;99.90
23160;DHT22;11748;50.844;4.396;2023-06-22T05:16:20;22.50;99.90
23160;DHT22;11748;50.844;4.396;2023-06-22T05:18:54;22.50;99.90
23160;DHT22;11748;50.844;4.396;2023-06-22T05:21:24;22.60;99.90
23160;DHT22;11748;50.844;4.396;2023-06-22T05:23:54;22.60;99.90
23160;DHT22;11748;50.844;4.396;2023-06-22T05:26:21;22.60;99.90
23160;DHT22;11748;50.844;4.396;2023-06-22T05:28:47;22.50;99.90
23160;DHT22;11748;50.844;4.396;2023-06-22T05:31:14;22.50;99.90
23160;DHT22;11748;50.844;4.396;2023-06-22T05:33:41;22.30;99.90
23160;DHT22;11748;50.844;4.396;2023-06-22T05:36:08;22.20;99.90
23160;DHT22;11748;50.844;4.396;2023-06-22T05:38:34;22.10;99.90
23160;DHT22;11748;50.844;4.396;2023-06-22T05:41:00;22.00;99.90
23160;DHT22;11748;50.844;4.396;2023-06-22T05:43:26;22.00;99.90
23160;DHT22;11748;50.844;4.396;2023-06-22T05:45:51;21.80;99.90
23160;DHT22;11748;50.844;4.396;2023-06-22T05:48:17;21.70;99.90
23160;DHT22;11748;50.844;4.396;2023-06-22T05:50:42;21.60;99.90
23160;DHT22;11748;50.844;4.396;2023-06-22T05:53:10;21.40;99.90
23160;DHT22;11748;50.844;4.396;2023-06-22T05:55:38;21.30;99.90
23160;DHT22;11748;50.844;4.396;2023-06-22T05:58:04;21.10;99.90
23160;DHT22;11748;50.844;4.396;2023-06-22T06:00:30;20.90;99.90
23160;DHT22;11748;50.844;4.396;2023-06-22T06:02:56;20.80;99.90
23160;DHT22;11748;50.844;4.396;2023-06-22T06:05:23;20.90;99.90
23160;DHT22;11748;50.844;4.396;2023-06-22T06:07:50;20.80;99.90
23160;DHT22;11748;50.844;4.396;2023-06-22T06:10:16;20.70;99.90
23160;DHT22;11748;50.844;4.396;2023-06-22T06:12:42;20.70;99.90
23160;DHT22;11748;50.844;4.396;2023-06-22T06:15:08;20.80;99.90
23160;DHT22;11748;50.844;4.396;2023-06-22T06:17:33;20.80;99.90
23160;DHT22;11748;50.844;4.396;2023-06-22T06:20:00;21.00;99.90
23160;DHT22;11748;50.844;4.396;2023-06-22T06:22:26;21.10;99.90
23160;DHT22;11748;50.844;4.396;2023-06-22T06:24:52;21.10;99.90
23160;DHT22;11748;50.844;4.396;2023-06-22T06:27:17;21.20;99.90
23160;DHT22;11748;50.844;4.396;2023-06-22T06:29:44;21.20;99.90
23160;DHT22;11748;50.844;4.396;2023-06-22T06:32:12;21.10;99.90
23160;DHT22;11748;50.844;4.396;2023-06-22T06:34:37;21.30;99.90
23160;DHT22;11748;50.844;4.396;2023-06-22T06:37:03;21.50;99.90
23160;DHT22;11748;50.844;4.396;2023-06-22T06:39:29;21.70;99.90
23160;DHT22;11748;50.844;4.396;2023-06-22T06:41:54;21.80;99.90
23160;DHT22;11748;50.844;4.396;2023-06-22T06:44:20;22.00;99.90
23160;DHT22;11748;50.844;4.396;2023-06-22T06:46:46;22.10;99.90
23160;DHT22;11748;50.844;4.396;2023-06-22T06:49:12;22.30;99.90
23160;DHT22;11748;50.844;4.396;2023-06-22T06:51:38;22.40;99.90
23160;DHT22;11748;50.844;4.396;2023-06-22T06:54:04;22.40;99.90
23160;DHT22;11748;50.844;4.396;2023-06-22T06:56:30;22.40;99.90
23160;DHT22;11748;50.844;4.396;2023-06-22T06:58:55;22.40;99.90
23160;DHT22;11748;50.844;4.396;2023-06-22T07:01:21;22.40;99.90
23160;DHT22;11748;50.844;4.396;2023-06-22T07:03:47;22.50;99.90
23160;DHT22;11748;50.844;4.396;2023-06-22T07:06:13;22.60;99.90
23160;DHT22;11748;50.844;4.396;2023-06-22T07:08:39;22.60;99.90
23160;DHT22;11748;50.844;4.396;2023-06-22T07:11:05;22.70;99.90
23160;DHT22;11748;50.844;4.396;2023-06-22T07:13:31;22.70;99.90
23160;DHT22;11748;50.844;4.396;2023-06-22T07:15:57;22.70;99.90
23160;DHT22;11748;50.844;4.396;2023-06-22T07:18:23;22.70;99.90
23160;DHT22;11748;50.844;4.396;2023-06-22T07:20:49;22.80;99.90
23160;DHT22;11748;50.844;4.396;2023-06-22T07:23:15;22.80;99.90
23160;DHT22;11748;50.844;4.396;2023-06-22T07:25:41;22.90;99.90
23160;DHT22;11748;50.844;4.396;2023-06-22T07:28:07;23.00;99.90
23160;DHT22;11748;50.844;4.396;2023-06-22T07:30:33;23.20;99.90
23160;DHT22;11748;50.844;4.396;2023-06-22T07:33:00;23.30;99.90
23160;DHT22;11748;50.844;4.396;2023-06-22T07:35:30;23.40;99.90
23160;DHT22;11748;50.844;4.396;2023-06-22T07:37:56;23.40;99.90
23160;DHT22;11748;50.844;4.396;2023-06-22T07:40:22;23.40;99.90
23160;DHT22;11748;50.844;4.396;2023-06-22T07:42:48;23.30;99.90
23160;DHT22;11748;50.844;4.396;2023-06-22T07:45:17;23.30;99.90
23160;DHT22;11748;50.844;4.396;2023-06-22T07:47:43;23.40;99.90
23160;DHT22;11748;50.844;4.396;2023-06-22T07:50:09;23.40;99.90
23160;DHT22;11748;50.844;4.396;2023-06-22T07:52:36;23.30;99.90
23160;DHT22;11748;50.844;4.396;2023-06-22T07:55:02;23.40;99.90
23160;DHT22;11748;50.844;4.396;2023-06-22T07:57:28;23.40;99.90
23160;DHT22;11748;50.844;4.396;2023-06-22T07:59:59;23.50;99.90
23160;DHT22;11748;50.844;4.396;2023-06-22T08:02:25;23.50;99.90
23160;DHT22;11748;50.844;4.396;2023-06-22T08:04:51;23.40;99.90
23160;DHT22;11748;50.844;4.396;2023-06-22T08:07:17;23.40;99.90
23160;DHT22;11748;50.844;4.396;2023-06-22T08:09:48;23.40;99.90
23160;DHT22;11748;50.844;4.396;2023-06-22T08:12:14;23.30;99.90
23160;DHT22;11748;50.844;4.396;2023-06-22T08:14:42;23.30;99.90
23160;DHT22;11748;50.844;4.396;2023-06-22T08:17:09;23.20;99.90
23160;DHT22;11748;50.844;4.396;2023-06-22T08:19:34;23.20;99.90
23160;DHT22;11748;50.844;4.396;2023-06-22T08:22:00;23.10;99.90
23160;DHT22;11748;50.844;4.396;2023-06-22T08:24:26;23.10;99.90
23160;DHT22;11748;50.844;4.396;2023-06-22T08:26:55;23.10;99.90
23160;DHT22;11748;50.844;4.396;2023-06-22T08:29:21;23.10;99.90
23160;DHT22;11748;50.844;4.396;2023-06-22T08:31:47;23.10;99.90
23160;DHT22;11748;50.844;4.396;2023-06-22T08:34:13;22.90;99.90
23160;DHT22;11748;50.844;4.396;2023-06-22T08:36:39;22.80;99.90
23160;DHT22;11748;50.844;4.396;2023-06-22T08:39:10;22.80;99.90
23160;DHT22;11748;50.844;4.396;2023-06-22T08:41:35;22.80;99.90
23160;DHT22;11748;50.844;4.396;2023-06-22T08:44:01;22.70;99.90
23160;DHT22;11748;50.844;4.396;2023-06-22T08:46:28;22.70;99.90
23160;DHT22;11748;50.844;4.396;2023-06-22T08:48:59;22.70;99.90
23160;DHT22;11748;50.844;4.396;2023-06-22T08:51:25;22.50;99.90
23160;DHT22;11748;50.844;4.396;2023-06-22T08:53:50;22.50;99.90
23160;DHT22;11748;50.844;4.396;2023-06-22T08:56:16;22.40;99.90
23160;DHT22;11748;50.844;4.396;2023-06-22T08:58:42;22.30;99.90
23160;DHT22;11748;50.844;4.396;2023-06-22T09:01:07;22.10;99.90
23160;DHT22;11748;50.844;4.396;2023-06-22T09:03:33;22.10;99.90
23160;DHT22;11748;50.844;4.396;2023-06-22T09:06:01;22.10;99.90
23160;DHT22;11748;50.844;4.396;2023-06-22T09:08:27;22.30;99.90
23160;DHT22;11748;50.844;4.396;2023-06-22T09:10:52;22.60;99.90
23160;DHT22;11748;50.844;4.396;2023-06-22T09:13:18;22.70;99.90
23160;DHT22;11748;50.844;4.396;2023-06-22T09:15:44;22.80;99.90
23160;DHT22;11748;50.844;4.396;2023-06-22T09:18:13;22.80;99.90
23160;DHT22;11748;50.844;4.396;2023-06-22T09:20:39;22.90;99.90
23160;DHT22;11748;50.844;4.396;2023-06-22T09:23:05;22.80;99.90
23160;DHT22;11748;50.844;4.396;2023-06-22T09:25:31;22.70;99.90
23160;DHT22;11748;50.844;4.396;2023-06-22T09:27:56;22.60;99.90
23160;DHT22;11748;50.844;4.396;2023-06-22T09:30:22;22.70;99.90
23160;DHT22;11748;50.844;4.396;2023-06-22T09:32:48;22.80;99.90
23160;DHT22;11748;50.844;4.396;2023-06-22T09:35:14;22.80;99.90
23160;DHT22;11748;50.844;4.396;2023-06-22T09:37:40;22.60;99.90
23160;DHT22;11748;50.844;4.396;2023-06-22T09:40:07;22.60;99.90
23160;DHT22;11748;50.844;4.396;2023-06-22T09:42:38;22.50;99.90
23160;DHT22;11748;50.844;4.396;2023-06-22T09:45:05;22.40;99.90
23160;DHT22;11748;50.844;4.396;2023-06-22T09:47:31;22.40;99.90
23160;DHT22;11748;50.844;4.396;2023-06-22T09:49:57;22.30;99.90
23160;DHT22;11748;50.844;4.396;2023-06-22T09:52:25;22.20;99.90
23160;DHT22;11748;50.844;4.396;2023-06-22T09:54:50;22.00;99.90
23160;DHT22;11748;50.844;4.396;2023-06-22T09:57:16;21.90;99.90
23160;DHT22;11748;50.844;4.396;2023-06-22T09:59:42;21.60;99.90
23160;DHT22;11748;50.844;4.396;2023-06-22T10:02:08;20.80;99.90
23160;DHT22;11748;50.844;4.396;2023-06-22T10:04:35;20.30;99.90
23160;DHT22;11748;50.844;4.396;2023-06-22T10:07:01;20.10;99.90
23160;DHT22;11748;50.844;4.396;2023-06-22T10:09:27;19.90;99.90
23160;DHT22;11748;50.844;4.396;2023-06-22T10:11:53;19.80;99.90
23160;DHT22;11748;50.844;4.396;2023-06-22T10:14:18;19.70;99.90
23160;DHT22;11748;50.844;4.396;2023-06-22T10:16:44;19.60;99.90
23160;DHT22;11748;50.844;4.396;2023-06-22T10:19:10;19.30;99.90
23160;DHT22;11748;50.844;4.396;2023-06-22T10:21:36;19.20;99.90
23160;DHT22;11748;50.844;4.396;2023-06-22T10:24:02;19.20;99.90
23160;DHT22;11748;50.844;4.396;2023-06-22T10:26:34;19.20;99.90
23160;DHT22;11748;50.844;4.396;2023-06-22T10:29:03;19.00;99.90
23160;DHT22;11748;50.844;4.396;2023-06-22T10:31:28;18.90;99.90
23160;DHT22;11748;50.844;4.396;2023-06-22T10:33:55;18.80;99.90
23160;DHT22;11748;50.844;4.396;2023-06-22T10:36:22;18.80;99.90
23160;DHT22;11748;50.844;4.396;2023-06-22T10:38:48;18.60;99.90
23160;DHT22;11748;50.844;4.396;2023-06-22T10:41:14;18.60;99.90
23160;DHT22;11748;50.844;4.396;2023-06-22T10:43:40;18.60;99.90
23160;DHT22;11748;50.844;4.396;2023-06-22T10:46:06;18.40;99.90
23160;DHT22;11748;50.844;4.396;2023-06-22T10:48:32;18.40;99.90
23160;DHT22;11748;50.844;4.396;2023-06-22T10:50:58;18.50;99.90
23160;DHT22;11748;50.844;4.396;2023-06-22T10:53:23;18.50;99.90
23160;DHT22;11748;50.844;4.396;2023-06-22T10:55:50;18.50;99.90
23160;DHT22;11748;50.844;4.396;2023-06-22T10:58:18;18.50;99.90
23160;DHT22;11748;50.844;4.396;2023-06-22T11:00:44;18.50;99.90
23160;DHT22;11748;50.844;4.396;2023-06-22T11:03:10;18.60;99.90
23160;DHT22;11748;50.844;4.396;2023-06-22T11:05:36;18.70;99.90
23160;DHT22;11748;50.844;4.396;2023-06-22T11:08:01;18.70;99.90
23160;DHT22;11748;50.844;4.396;2023-06-22T11:10:27;18.80;99.90
23160;DHT22;11748;50.844;4.396;2023-06-22T11:12:52;18.80;99.90
23160;DHT22;11748;50.844;4.396;2023-06-22T11:15:19;18.70;99.90
23160;DHT22;11748;50.844;4.396;2023-06-22T11:17:44;18.80;99.90
23160;DHT22;11748;50.844;4.396;2023-06-22T11:20:11;18.80;99.90
23160;DHT22;11748;50.844;4.396;2023-06-22T11:22:38;18.80;99.90
23160;DHT22;11748;50.844;4.396;2023-06-22T11:25:05;18.80;99.90
23160;DHT22;11748;50.844;4.396;2023-06-22T11:27:30;18.90;99.90
23160;DHT22;11748;50.844;4.396;2023-06-22T11:29:56;19.00;99.90
23160;DHT22;11748;50.844;4.396;2023-06-22T11:32:22;19.00;99.90
23160;DHT22;11748;50.844;4.396;2023-06-22T11:34:48;19.10;99.90
23160;DHT22;11748;50.844;4.396;2023-06-22T11:37:13;19.20;99.90
23160;DHT22;11748;50.844;4.396;2023-06-22T11:39:39;19.20;99.90
23160;DHT22;11748;50.844;4.396;2023-06-22T11:42:05;19.30;99.90
23160;DHT22;11748;50.844;4.396;2023-06-22T11:44:30;19.20;99.90
23160;DHT22;11748;50.844;4.396;2023-06-22T11:46:57;19.20;99.90
23160;DHT22;11748;50.844;4.396;2023-06-22T11:49:23;19.20;99.90
23160;DHT22;11748;50.844;4.396;2023-06-22T11:51:48;19.20;99.90
23160;DHT22;11748;50.844;4.396;2023-06-22T11:54:14;19.10;99.90
23160;DHT22;11748;50.844;4.396;2023-06-22T11:56:41;18.90;99.90
23160;DHT22;11748;50.844;4.396;2023-06-22T11:59:07;19.00;99.90
23160;DHT22;11748;50.844;4.396;2023-06-22T12:01:35;19.00;99.90
23160;DHT22;11748;50.844;4.396;2023-06-22T12:04:02;18.90;99.90
23160;DHT22;11748;50.844;4.396;2023-06-22T12:06:35;18.90;99.90
23160;DHT22;11748;50.844;4.396;2023-06-22T12:09:03;18.80;99.90
23160;DHT22;11748;50.844;4.396;2023-06-22T12:11:30;18.80;99.90
23160;DHT22;11748;50.844;4.396;2023-06-22T12:13:56;18.70;99.90
23160;DHT22;11748;50.844;4.396;2023-06-22T12:16:23;18.70;99.90
23160;DHT22;11748;50.844;4.396;2023-06-22T12:18:49;18.70;99.90
23160;DHT22;11748;50.844;4.396;2023-06-22T12:21:15;18.70;99.90
23160;DHT22;11748;50.844;4.396;2023-06-22T12:23:41;18.70;99.90
23160;DHT22;11748;50.844;4.396;2023-06-22T12:26:06;18.60;99.90
23160;DHT22;11748;50.844;4.396;2023-06-22T12:28:32;18.50;99.90
23160;DHT22;11748;50.844;4.396;2023-06-22T12:30:58;18.60;99.90
23160;DHT22;11748;50.844;4.396;2023-06-22T12:33:23;18.70;99.90
23160;DHT22;11748;50.844;4.396;2023-06-22T12:35:52;18.70;99.90
23160;DHT22;11748;50.844;4.396;2023-06-22T12:38:18;18.70;99.90
23160;DHT22;11748;50.844;4.396;2023-06-22T12:40:43;18.70;99.90
23160;DHT22;11748;50.844;4.396;2023-06-22T12:43:09;18.80;99.90
23160;DHT22;11748;50.844;4.396;2023-06-22T12:45:35;18.80;99.90
23160;DHT22;11748;50.844;4.396;2023-06-22T12:48:01;18.70;99.90
23160;DHT22;11748;50.844;4.396;2023-06-22T12:50:26;18.80;99.90
23160;DHT22;11748;50.844;4.396;2023-06-22T12:52:52;18.70;99.90
23160;DHT22;11748;50.844;4.396;2023-06-22T12:55:17;18.60;99.90
23160;DHT22;11748;50.844;4.396;2023-06-22T12:57:43;18.60;99.90
23160;DHT22;11748;50.844;4.396;2023-06-22T13:00:09;18.60;99.90
23160;DHT22;11748;50.844;4.396;2023-06-22T13:02:36;18.60;99.90
23160;DHT22;11748;50.844;4.396;2023-06-22T13:05:02;18.70;99.90
23160;DHT22;11748;50.844;4.396;2023-06-22T13:07:30;18.80;99.90
23160;DHT22;11748;50.844;4.396;2023-06-22T13:09:58;18.80;99.90
23160;DHT22;11748;50.844;4.396;2023-06-22T13:12:24;18.80;99.90
23160;DHT22;11748;50.844;4.396;2023-06-22T13:14:50;18.70;99.90
23160;DHT22;11748;50.844;4.396;2023-06-22T13:17:17;18.70;99.90
23160;DHT22;11748;50.844;4.396;2023-06-22T13:19:43;18.70;99.90
23160;DHT22;11748;50.844;4.396;2023-06-22T13:22:28;18.70;99.90
23160;DHT22;11748;50.844;4.396;2023-06-22T13:24:55;18.70;99.90
23160;DHT22;11748;50.844;4.396;2023-06-22T13:27:20;18.70;99.90
23160;DHT22;11748;50.844;4.396;2023-06-22T13:29:46;18.70;99.90
23160;DHT22;11748;50.844;4.396;2023-06-22T13:32:12;18.70;99.90
23160;DHT22;11748;50.844;4.396;2023-06-22T13:34:43;18.80;99.90
23160;DHT22;11748;50.844;4.396;2023-06-22T13:37:11;18.80;99.90
23160;DHT22;11748;50.844;4.396;2023-06-22T13:39:38;18.70;99.90
23160;DHT22;11748;50.844;4.396;2023-06-22T13:42:05;18.70;99.90
23160;DHT22;11748;50.844;4.396;2023-06-22T13:44:32;18.70;99.90
23160;DHT22;11748;50.844;4.396;2023-06-22T13:46:57;18.80;99.90
23160;DHT22;11748;50.844;4.396;2023-06-22T13:49:23;18.70;99.90
23160;DHT22;11748;50.844;4.396;2023-06-22T13:51:49;18.60;99.90
23160;DHT22;11748;50.844;4.396;2023-06-22T13:54:15;18.60;99.90
23160;DHT22;11748;50.844;4.396;2023-06-22T13:56:40;18.60;99.90
23160;DHT22;11748;50.844;4.396;2023-06-22T13:59:06;18.60;99.90
23160;DHT22;11748;50.844;4.396;2023-06-22T14:01:36;18.60;99.90
23160;DHT22;11748;50.844;4.396;2023-06-22T14:04:08;18.50;99.90
23160;DHT22;11748;50.844;4.396;2023-06-22T14:06:37;18.40;99.90
23160;DHT22;11748;50.844;4.396;2023-06-22T14:09:03;18.40;99.90
23160;DHT22;11748;50.844;4.396;2023-06-22T14:11:30;18.40;99.90
23160;DHT22;11748;50.844;4.396;2023-06-22T14:13:55;18.40;99.90
23160;DHT22;11748;50.844;4.396;2023-06-22T14:16:23;18.60;99.90
23160;DHT22;11748;50.844;4.396;2023-06-22T14:18:50;18.60;99.90
23160;DHT22;11748;50.844;4.396;2023-06-22T14:21:16;18.60;99.90
23160;DHT22;11748;50.844;4.396;2023-06-22T14:23:42;18.70;99.90
23160;DHT22;11748;50.844;4.396;2023-06-22T14:26:12;18.70;99.90
23160;DHT22;11748;50.844;4.396;2023-06-22T14:28:39;18.60;99.90
23160;DHT22;11748;50.844;4.396;2023-06-22T14:31:04;18.60;99.90
23160;DHT22;11748;50.844;4.396;2023-06-22T14:33:30;18.70;99.90
23160;DHT22;11748;50.844;4.396;2023-06-22T14:35:56;18.50;99.90
23160;DHT22;11748;50.844;4.396;2023-06-22T14:38:21;18.50;99.90
23160;DHT22;11748;50.844;4.396;2023-06-22T14:40:47;18.50;99.90
23160;DHT22;11748;50.844;4.396;2023-06-22T14:43:14;18.40;99.90
23160;DHT22;11748;50.844;4.396;2023-06-22T14:45:41;18.40;99.90
23160;DHT22;11748;50.844;4.396;2023-06-22T14:48:07;18.50;99.90
23160;DHT22;11748;50.844;4.396;2023-06-22T14:50:32;18.50;99.90
23160;DHT22;11748;50.844;4.396;2023-06-22T14:52:58;18.50;99.90
23160;DHT22;11748;50.844;4.396;2023-06-22T14:55:23;18.50;99.90
23160;DHT22;11748;50.844;4.396;2023-06-22T14:57:49;18.70;99.90
23160;DHT22;11748;50.844;4.396;2023-06-22T15:00:15;18.60;99.90
23160;DHT22;11748;50.844;4.396;2023-06-22T15:02:41;18.60;99.90
23160;DHT22;11748;50.844;4.396;2023-06-22T15:05:07;18.60;99.90
23160;DHT22;11748;50.844;4.396;2023-06-22T15:07:32;18.60;99.90
23160;DHT22;11748;50.844;4.396;2023-06-22T15:09:58;18.70;99.90
23160;DHT22;11748;50.844;4.396;2023-06-22T15:12:24;18.70;99.90
23160;DHT22;11748;50.844;4.396;2023-06-22T15:14:49;18.70;99.90
23160;DHT22;11748;50.844;4.396;2023-06-22T15:17:15;18.70;99.90
23160;DHT22;11748;50.844;4.396;2023-06-22T15:19:41;18.80;99.90
23160;DHT22;11748;50.844;4.396;2023-06-22T15:22:07;18.80;99.90
23160;DHT22;11748;50.844;4.396;2023-06-22T15:24:33;18.80;99.90
23160;DHT22;11748;50.844;4.396;2023-06-22T15:26:59;18.80;99.90
23160;DHT22;11748;50.844;4.396;2023-06-22T15:29:27;18.80;99.90
23160;DHT22;11748;50.844;4.396;2023-06-22T15:31:59;18.80;99.90
23160;DHT22;11748;50.844;4.396;2023-06-22T15:34:25;18.80;99.90